createdAt,value
2017-11-23T00:00:28.159Z,3.80
2017-11-23T00:02:56.539Z,3.70
2017-11-23T00:05:24.922Z,3.70
2017-11-23T00:07:53.317Z,3.60
2017-11-23T00:10:21.725Z,3.50
2017-11-23T00:12:50.115Z,3.50
2017-11-23T00:15:18.299Z,3.40
2017-11-23T00:17:47.465Z,3.40
2017-11-23T00:20:15.856Z,3.40
2017-11-23T00:22:44.243Z,3.40
2017-11-23T00:25:12.631Z,3.50
2017-11-23T00:27:41.783Z,3.50
2017-11-23T00:30:10.165Z,3.50
2017-11-23T00:32:39.072Z,3.60
2017-11-23T00:35:07.470Z,3.60
2017-11-23T00:37:36.621Z,3.50
2017-11-23T00:40:05.007Z,3.50
2017-11-23T00:42:33.209Z,3.50
2017-11-23T00:45:01.585Z,3.60
2017-11-23T00:47:29.962Z,3.60
2017-11-23T00:49:58.352Z,3.50
2017-11-23T00:52:28.161Z,3.40
2017-11-23T00:54:57.326Z,3.40
2017-11-23T00:57:25.705Z,3.30
2017-11-23T00:59:54.093Z,3.40
2017-11-23T01:02:23.975Z,3.40
2017-11-23T01:04:52.363Z,3.40
2017-11-23T01:07:20.735Z,3.40
2017-11-23T01:09:49.114Z,3.40
2017-11-23T01:12:17.495Z,3.40
2017-11-23T01:14:45.869Z,3.50
2017-11-23T01:17:14.323Z,3.50
2017-11-23T01:19:42.699Z,3.40
2017-11-23T01:22:16.709Z,3.40
2017-11-23T01:24:45.084Z,3.20
2017-11-23T01:27:13.576Z,3.00
2017-11-23T01:29:41.956Z,2.80
2017-11-23T01:32:10.332Z,2.70
2017-11-23T01:34:38.719Z,2.60
2017-11-23T01:37:08.107Z,2.50
2017-11-23T01:39:36.487Z,2.40
2017-11-23T01:42:04.874Z,2.30
2017-11-23T01:44:32.767Z,2.20
2017-11-23T01:47:01.147Z,2.20
2017-11-23T01:49:29.528Z,2.20
2017-11-23T01:51:57.907Z,2.20
2017-11-23T01:54:26.291Z,2.10
2017-11-23T01:56:54.011Z,2.00
2017-11-23T01:59:21.530Z,2.00
2017-11-23T02:01:50.686Z,1.90
2017-11-23T02:04:19.059Z,1.90
2017-11-23T02:06:47.437Z,1.90
2017-11-23T02:09:15.630Z,1.80
2017-11-23T02:11:43.805Z,1.80
2017-11-23T02:14:12.428Z,1.70
2017-11-23T02:16:40.630Z,1.70
2017-11-23T02:19:08.688Z,1.70
2017-11-23T02:21:37.009Z,1.70
2017-11-23T02:24:04.875Z,1.70
2017-11-23T02:26:32.401Z,1.60
2017-11-23T02:29:00.280Z,1.60
2017-11-23T02:31:28.151Z,1.60
2017-11-23T02:33:55.688Z,1.60
2017-11-23T02:36:23.582Z,1.60
2017-11-23T02:38:51.655Z,1.50
2017-11-23T02:41:20.136Z,1.50
2017-11-23T02:43:48.194Z,1.50
2017-11-23T02:46:15.933Z,1.50
2017-11-23T02:48:43.991Z,1.40
2017-11-23T02:51:11.507Z,1.40
2017-11-23T02:53:39.565Z,1.40
2017-11-23T02:56:07.945Z,1.40
2017-11-23T02:58:35.679Z,1.30
2017-11-23T03:01:03.402Z,1.20
2017-11-23T03:03:31.273Z,1.20
2017-11-23T03:05:59.650Z,1.20
2017-11-23T03:08:28.035Z,1.20
2017-11-23T03:10:56.436Z,1.20
2017-11-23T03:13:24.806Z,1.20
2017-11-23T03:15:52.865Z,1.30
2017-11-23T03:18:20.916Z,1.40
2017-11-23T03:20:49.338Z,1.40
2017-11-23T03:23:17.735Z,1.70
2017-11-23T03:25:46.122Z,2.00
2017-11-23T03:28:15.273Z,2.20
2017-11-23T03:30:42.991Z,2.20
2017-11-23T03:33:12.143Z,2.20
2017-11-23T03:35:40.525Z,2.20
2017-11-23T03:38:08.923Z,2.10
2017-11-23T03:40:36.666Z,2.10
2017-11-23T03:43:04.386Z,1.90
2017-11-23T03:45:32.108Z,1.70
2017-11-23T03:48:00.299Z,1.60
2017-11-23T03:50:29.442Z,1.20
2017-11-23T03:52:57.828Z,1.20
2017-11-23T03:55:26.209Z,1.20
2017-11-23T03:57:54.590Z,1.10
2017-11-23T04:00:22.302Z,1.10
2017-11-23T04:02:51.116Z,1.00
2017-11-23T04:05:19.499Z,1.00
2017-11-23T04:07:47.547Z,1.00
2017-11-23T04:10:15.590Z,1.00
2017-11-23T04:12:43.999Z,0.90
2017-11-23T04:15:12.406Z,0.90
2017-11-23T04:17:41.835Z,0.80
2017-11-23T04:20:09.694Z,0.70
2017-11-23T04:22:38.144Z,0.60
2017-11-23T04:25:07.814Z,0.60
2017-11-23T04:27:36.300Z,0.60
2017-11-23T04:30:05.471Z,0.50
2017-11-23T04:32:33.845Z,0.50
2017-11-23T04:35:02.221Z,0.50
2017-11-23T04:37:30.620Z,0.50
2017-11-23T04:39:59.768Z,0.40
2017-11-23T04:42:27.484Z,0.40
2017-11-23T04:44:56.632Z,0.40
2017-11-23T04:47:25.056Z,0.40
2017-11-23T04:49:54.196Z,0.40
2017-11-23T04:52:22.585Z,0.30
2017-11-23T04:54:50.303Z,0.40
2017-11-23T04:57:18.681Z,0.40
2017-11-23T04:59:47.067Z,0.40
2017-11-23T05:02:15.443Z,0.30
2017-11-23T05:04:43.815Z,0.30
2017-11-23T05:07:12.200Z,0.30
2017-11-23T05:09:40.571Z,0.30
2017-11-23T05:12:08.969Z,0.20
2017-11-23T05:14:37.354Z,0.20
2017-11-23T05:17:05.551Z,0.30
2017-11-23T05:19:33.922Z,0.30
2017-11-23T05:22:02.307Z,0.20
2017-11-23T05:24:31.484Z,0.20
2017-11-23T05:26:59.582Z,0.20
2017-11-23T05:29:27.978Z,0.20
2017-11-23T05:31:57.121Z,0.20
2017-11-23T05:34:25.497Z,0.20
2017-11-23T05:36:53.892Z,0.20
2017-11-23T05:39:22.287Z,0.20
2017-11-23T05:41:51.432Z,0.20
2017-11-23T05:44:19.835Z,0.20
2017-11-23T05:46:48.212Z,0.20
2017-11-23T05:49:16.583Z,0.10
2017-11-23T05:51:44.967Z,0.10
2017-11-23T05:54:13.349Z,0.10
2017-11-23T05:56:41.729Z,0.10
2017-11-23T05:59:10.127Z,0.00
2017-11-23T06:01:38.517Z,0.00
2017-11-23T06:04:06.901Z,0.00
2017-11-23T06:06:36.067Z,0.00
2017-11-23T06:09:03.778Z,0.00
2017-11-23T06:11:32.914Z,0.10
2017-11-23T06:14:01.310Z,0.10
2017-11-23T06:16:29.688Z,0.10
2017-11-23T06:18:58.058Z,0.00
2017-11-23T06:21:26.603Z,0.10
2017-11-23T06:23:55.088Z,0.00
2017-11-23T06:26:23.464Z,0.00
2017-11-23T06:28:51.859Z,0.00
2017-11-23T06:31:20.231Z,0.10
2017-11-23T06:33:48.611Z,0.10
2017-11-23T06:36:17.014Z,0.10
2017-11-23T06:38:45.403Z,0.20
2017-11-23T06:41:13.785Z,0.30
2017-11-23T06:43:42.947Z,0.90
2017-11-23T06:46:11.327Z,0.90
2017-11-23T06:48:39.703Z,1.00
2017-11-23T06:51:08.091Z,1.10
2017-11-23T06:53:36.483Z,1.10
2017-11-23T06:56:04.866Z,1.10
2017-11-23T06:58:33.261Z,1.10
2017-11-23T07:01:02.394Z,1.50
2017-11-23T07:03:30.784Z,1.50
2017-11-23T07:05:59.170Z,1.80
2017-11-23T07:08:27.545Z,1.90
2017-11-23T07:10:55.928Z,2.20
2017-11-23T07:13:24.305Z,2.70
2017-11-23T07:15:52.491Z,2.70
2017-11-23T07:18:20.935Z,2.70
2017-11-23T07:20:49.320Z,2.80
2017-11-23T07:23:17.695Z,3.00
2017-11-23T07:25:46.071Z,3.10
2017-11-23T07:28:19.099Z,3.10
2017-11-23T07:30:47.475Z,3.10
2017-11-23T07:33:15.852Z,3.30
2017-11-23T07:35:45.088Z,3.40
2017-11-23T07:38:13.460Z,3.60
2017-11-23T07:40:41.831Z,3.90
2017-11-23T07:43:10.989Z,5.70
2017-11-23T07:45:39.372Z,5.60
2017-11-23T07:48:07.752Z,6.80
2017-11-23T07:50:36.147Z,7.60
2017-11-23T07:53:05.284Z,8.60
2017-11-23T07:55:33.673Z,8.60
2017-11-23T07:58:02.059Z,8.80
2017-11-23T08:00:30.435Z,8.70
2017-11-23T08:02:58.485Z,8.40
2017-11-23T08:05:26.879Z,8.30
2017-11-23T08:07:55.342Z,8.50
2017-11-23T08:10:23.727Z,8.40
2017-11-23T08:12:52.110Z,8.30
2017-11-23T08:15:19.822Z,8.30
2017-11-23T08:17:48.356Z,8.20
2017-11-23T08:20:16.736Z,8.10
2017-11-23T08:22:44.787Z,8.30
2017-11-23T08:25:13.166Z,8.40
2017-11-23T08:27:41.638Z,8.30
2017-11-23T08:30:10.020Z,8.20
2017-11-23T08:32:38.400Z,8.30
2017-11-23T08:35:06.805Z,8.50
2017-11-23T08:37:35.189Z,8.70
2017-11-23T08:40:03.559Z,9.10
2017-11-23T08:42:31.944Z,9.40
2017-11-23T08:45:00.515Z,9.50
2017-11-23T08:47:28.896Z,9.70
2017-11-23T08:49:59.517Z,9.90
2017-11-23T08:52:27.900Z,10.10
2017-11-23T08:54:56.088Z,10.90
2017-11-23T08:57:24.473Z,11.50
2017-11-23T08:59:52.860Z,11.80
2017-11-23T09:02:20.574Z,11.90
2017-11-23T09:04:48.960Z,12.00
2017-11-23T09:07:17.347Z,12.40
2017-11-23T09:09:45.540Z,12.40
2017-11-23T09:12:14.706Z,12.50
2017-11-23T09:14:43.088Z,13.00
2017-11-23T09:17:11.463Z,13.10
2017-11-23T09:19:40.128Z,13.20
2017-11-23T09:22:08.511Z,13.30
2017-11-23T09:24:37.004Z,13.30
2017-11-23T09:27:05.396Z,13.60
2017-11-23T09:29:33.775Z,13.90
2017-11-23T09:32:02.171Z,14.20
2017-11-23T09:34:30.231Z,14.50
2017-11-23T09:36:59.195Z,15.00
2017-11-23T09:39:27.587Z,15.30
2017-11-23T09:41:55.983Z,15.70
2017-11-23T09:44:24.369Z,15.70
2017-11-23T09:46:52.753Z,15.90
2017-11-23T09:49:21.146Z,15.60
2017-11-23T09:51:49.944Z,15.80
2017-11-23T09:54:19.086Z,16.00
2017-11-23T09:56:47.488Z,16.00
2017-11-23T09:59:15.865Z,15.70
2017-11-23T10:01:44.234Z,15.20
2017-11-23T10:04:12.614Z,15.00
2017-11-23T10:06:41.436Z,15.80
2017-11-23T10:09:10.575Z,16.60
2017-11-23T10:11:38.968Z,16.60
2017-11-23T10:14:12.764Z,17.20
2017-11-23T10:16:41.142Z,17.30
2017-11-23T10:19:10.691Z,18.00
2017-11-23T10:21:39.844Z,18.00
2017-11-23T10:24:08.228Z,18.00
2017-11-23T10:26:36.595Z,17.90
2017-11-23T10:29:04.985Z,17.20
2017-11-23T10:31:34.193Z,16.70
2017-11-23T10:34:02.566Z,15.90
2017-11-23T10:36:30.951Z,15.40
2017-11-23T10:38:59.335Z,15.20
2017-11-23T10:41:27.759Z,15.00
2017-11-23T10:43:56.148Z,14.70
2017-11-23T10:46:25.588Z,14.50
2017-11-23T10:48:53.133Z,14.50
2017-11-23T10:51:21.527Z,14.50
2017-11-23T10:53:49.939Z,14.20
2017-11-23T10:56:17.650Z,14.10
2017-11-23T10:58:46.028Z,14.00
2017-11-23T11:01:14.084Z,14.10
2017-11-23T11:03:42.498Z,14.20
2017-11-23T11:06:10.216Z,14.30
2017-11-23T11:08:38.597Z,14.40
2017-11-23T11:11:06.976Z,14.50
2017-11-23T11:13:35.347Z,14.50
2017-11-23T11:16:03.731Z,14.60
2017-11-23T11:18:32.112Z,14.60
2017-11-23T11:21:00.483Z,14.70
2017-11-23T11:23:28.881Z,14.80
2017-11-23T11:25:57.258Z,14.80
2017-11-23T11:28:25.651Z,14.80
2017-11-23T11:30:54.038Z,14.90
2017-11-23T11:33:23.194Z,14.80
2017-11-23T11:35:51.581Z,14.80
2017-11-23T11:38:19.967Z,14.80
2017-11-23T11:40:48.343Z,14.80
2017-11-23T11:43:16.931Z,14.80
2017-11-23T11:45:45.322Z,14.80
2017-11-23T11:48:13.716Z,14.80
2017-11-23T11:50:42.869Z,14.70
2017-11-23T11:53:11.250Z,14.70
2017-11-23T11:55:39.634Z,14.80
2017-11-23T11:58:08.015Z,14.80
2017-11-23T12:00:36.409Z,14.80
2017-11-23T12:03:04.786Z,14.80
2017-11-23T12:05:33.170Z,14.90
2017-11-23T12:08:01.589Z,14.80
2017-11-23T12:10:29.968Z,14.80
2017-11-23T12:12:58.171Z,14.80
2017-11-23T12:15:32.854Z,14.80
2017-11-23T12:18:12.418Z,14.80
2017-11-23T12:20:51.980Z,14.80
2017-11-23T12:23:31.500Z,14.80
2017-11-23T12:25:59.216Z,14.90
2017-11-23T12:28:39.496Z,15.00
2017-11-23T12:31:07.890Z,15.00
2017-11-23T12:33:36.362Z,14.90
2017-11-23T12:36:04.739Z,14.80
2017-11-23T12:38:33.134Z,14.80
2017-11-23T12:41:01.503Z,14.90
2017-11-23T12:43:29.894Z,14.80
2017-11-23T12:45:58.279Z,14.80
2017-11-23T12:48:26.679Z,14.80
2017-11-23T12:50:55.059Z,14.70
2017-11-23T12:53:24.214Z,14.70
2017-11-23T12:55:52.674Z,14.70
2017-11-23T12:58:21.053Z,14.70
2017-11-23T13:00:49.456Z,14.70
2017-11-23T13:03:17.829Z,14.60
2017-11-23T13:05:46.206Z,14.70
2017-11-23T13:08:14.263Z,14.80
2017-11-23T13:10:42.650Z,14.80
2017-11-23T13:13:11.027Z,14.80
2017-11-23T13:15:39.415Z,14.80
2017-11-23T13:18:07.804Z,14.90
2017-11-23T13:20:36.201Z,14.90
2017-11-23T13:23:04.593Z,15.00
2017-11-23T13:25:33.751Z,14.90
2017-11-23T13:28:02.123Z,14.80
2017-11-23T13:30:30.516Z,14.80
2017-11-23T13:32:58.889Z,14.80
2017-11-23T13:35:27.271Z,14.70
2017-11-23T13:37:55.677Z,14.70
2017-11-23T13:40:24.863Z,14.80
2017-11-23T13:42:53.303Z,14.80
2017-11-23T13:45:21.703Z,14.80
2017-11-23T13:47:50.086Z,14.70
2017-11-23T13:50:18.142Z,14.60
2017-11-23T13:52:46.539Z,14.50
2017-11-23T13:55:14.246Z,14.50
2017-11-23T13:57:42.623Z,14.30
2017-11-23T14:00:10.686Z,14.30
2017-11-23T14:02:39.052Z,14.20
2017-11-23T14:05:07.871Z,14.10
2017-11-23T14:07:36.084Z,14.00
2017-11-23T14:10:03.947Z,14.10
2017-11-23T14:12:32.140Z,14.20
2017-11-23T14:15:00.535Z,14.10
2017-11-23T14:17:29.679Z,14.10
2017-11-23T14:19:58.055Z,14.10
2017-11-23T14:22:26.205Z,14.10
2017-11-23T14:24:54.582Z,14.10
2017-11-23T14:27:22.969Z,14.10
2017-11-23T14:29:51.357Z,14.10
2017-11-23T14:32:19.735Z,14.10
2017-11-23T14:34:48.114Z,14.00
2017-11-23T14:37:16.503Z,13.80
2017-11-23T14:39:44.886Z,13.70
2017-11-23T14:42:13.271Z,13.60
2017-11-23T14:44:41.705Z,13.40
2017-11-23T14:47:10.082Z,13.30
2017-11-23T14:49:38.466Z,13.30
2017-11-23T14:52:06.935Z,13.40
2017-11-23T14:54:35.322Z,13.50
2017-11-23T14:57:03.702Z,13.40
2017-11-23T14:59:32.091Z,13.30
2017-11-23T15:02:00.471Z,13.40
2017-11-23T15:04:28.855Z,13.40
2017-11-23T15:06:57.242Z,13.30
2017-11-23T15:09:25.614Z,13.20
2017-11-23T15:11:54.013Z,13.10
2017-11-23T15:14:22.206Z,12.90
2017-11-23T15:16:51.359Z,12.70
2017-11-23T15:19:19.744Z,12.70
2017-11-23T15:21:47.803Z,12.70
2017-11-23T15:24:16.178Z,12.70
2017-11-23T15:26:44.568Z,12.50
2017-11-23T15:29:12.954Z,12.40
2017-11-23T15:31:41.348Z,12.30
2017-11-23T15:34:10.511Z,12.30
2017-11-23T15:36:38.903Z,12.20
2017-11-23T15:39:07.319Z,12.10
2017-11-23T15:41:36.476Z,11.80
2017-11-23T15:44:04.868Z,11.80
2017-11-23T15:46:33.249Z,12.20
2017-11-23T15:49:01.660Z,12.40
2017-11-23T15:51:30.043Z,12.40
2017-11-23T15:53:58.435Z,12.60
2017-11-23T15:56:26.491Z,12.60
2017-11-23T15:58:55.697Z,12.70
2017-11-23T16:01:24.088Z,12.80
2017-11-23T16:03:52.861Z,13.00
2017-11-23T16:06:21.463Z,13.30
2017-11-23T16:08:49.849Z,13.30
2017-11-23T16:11:18.247Z,13.20
2017-11-23T16:13:46.643Z,13.20
2017-11-23T16:16:15.208Z,13.30
2017-11-23T16:18:45.094Z,13.20
2017-11-23T16:21:13.486Z,13.10
2017-11-23T16:23:41.877Z,13.10
2017-11-23T16:26:10.265Z,13.00
2017-11-23T16:28:39.256Z,13.00
2017-11-23T16:31:08.224Z,12.90
2017-11-23T16:33:36.410Z,12.90
2017-11-23T16:36:04.793Z,12.80
2017-11-23T16:38:49.019Z,12.70
2017-11-23T16:41:17.555Z,12.50
2017-11-23T16:43:46.199Z,12.30
2017-11-23T16:46:14.971Z,12.20
2017-11-23T16:48:44.023Z,12.10
2017-11-23T16:51:17.925Z,12.10
2017-11-23T16:53:51.809Z,12.30
2017-11-23T16:56:26.526Z,12.20
2017-11-23T16:59:04.636Z,12.10
2017-11-23T17:01:38.671Z,12.10
2017-11-23T17:07:31.366Z,11.80
2017-11-23T17:10:05.346Z,11.60
2017-11-23T17:12:49.967Z,11.50
2017-11-23T17:15:24.266Z,11.50
2017-11-23T17:17:54.474Z,11.60
2017-11-23T17:20:22.861Z,11.80
2017-11-23T17:22:51.256Z,11.70
2017-11-23T17:25:19.627Z,11.70
2017-11-23T17:27:48.008Z,11.70
2017-11-23T17:30:16.401Z,11.70
2017-11-23T17:32:44.779Z,11.50
2017-11-23T17:35:13.174Z,11.50
2017-11-23T17:37:41.738Z,11.50
2017-11-23T17:40:10.852Z,11.40
2017-11-23T17:42:40.043Z,11.40
2017-11-23T17:45:09.193Z,11.40
2017-11-23T17:47:38.203Z,11.40
2017-11-23T17:50:06.674Z,11.60
2017-11-23T17:52:35.083Z,11.50
2017-11-23T17:55:03.470Z,11.60
2017-11-23T17:57:32.627Z,11.60
2017-11-23T18:00:01.021Z,11.50
2017-11-23T18:02:30.224Z,11.40
2017-11-23T18:04:58.814Z,11.30
2017-11-23T18:07:27.342Z,11.20
2017-11-23T18:09:55.419Z,11.20
2017-11-23T18:12:23.799Z,11.10
2017-11-23T18:14:52.378Z,11.00
2017-11-23T18:17:20.832Z,11.00
2017-11-23T18:19:49.206Z,11.10
2017-11-23T18:22:17.592Z,11.30
2017-11-23T18:24:45.987Z,11.30
2017-11-23T18:27:14.370Z,11.30
2017-11-23T18:29:42.780Z,11.20
2017-11-23T18:32:11.336Z,11.30
2017-11-23T18:34:39.719Z,11.20
2017-11-23T18:37:08.390Z,11.20
2017-11-23T18:39:36.780Z,11.10
2017-11-23T18:42:05.176Z,11.20
2017-11-23T18:44:33.585Z,11.10
2017-11-23T18:47:02.915Z,10.80
2017-11-23T18:49:31.485Z,10.80
2017-11-23T18:52:01.144Z,10.90
2017-11-23T18:54:29.524Z,10.90
2017-11-23T18:56:57.903Z,10.90
2017-11-23T18:59:26.329Z,10.90
2017-11-23T19:01:54.981Z,10.80
2017-11-23T19:04:23.646Z,10.70
2017-11-23T19:06:52.302Z,10.60
2017-11-23T19:09:20.690Z,10.50
2017-11-23T19:11:49.342Z,10.50
2017-11-23T19:14:17.941Z,10.70
2017-11-23T19:16:46.462Z,10.80
2017-11-23T19:19:15.213Z,10.80
2017-11-23T19:21:43.404Z,10.90
2017-11-23T19:24:13.833Z,10.80
2017-11-23T19:26:42.214Z,10.80
2017-11-23T19:29:10.614Z,10.70
2017-11-23T19:31:39.002Z,10.60
2017-11-23T19:34:07.634Z,10.50
2017-11-23T19:36:36.143Z,10.40
2017-11-23T19:39:03.839Z,10.30
2017-11-23T19:41:33.029Z,10.30
2017-11-23T19:44:01.548Z,10.30
2017-11-23T19:46:29.931Z,10.20
2017-11-23T19:48:58.307Z,10.00
2017-11-23T19:51:26.683Z,9.80
2017-11-23T19:53:55.065Z,9.80
2017-11-23T19:56:23.631Z,9.90
2017-11-23T19:58:52.042Z,9.90
2017-11-23T20:01:21.063Z,9.90
2017-11-23T20:03:49.675Z,10.00
2017-11-23T20:06:18.976Z,9.90
2017-11-23T20:08:47.619Z,9.90
2017-11-23T20:11:16.094Z,9.90
2017-11-23T20:13:45.475Z,9.90
2017-11-23T20:16:13.865Z,9.90
2017-11-23T20:18:42.551Z,9.90
2017-11-23T20:21:10.936Z,9.80
2017-11-23T20:23:39.712Z,9.80
2017-11-23T20:26:08.458Z,9.80
2017-11-23T20:28:37.114Z,9.70
2017-11-23T20:31:05.635Z,9.80
2017-11-23T20:33:34.016Z,9.70
2017-11-23T20:36:02.618Z,9.70
2017-11-23T20:38:32.018Z,9.60
2017-11-23T20:41:00.682Z,9.60
2017-11-23T20:43:30.115Z,9.70
2017-11-23T20:45:58.737Z,9.60
2017-11-23T20:48:27.115Z,9.70
2017-11-23T20:50:55.558Z,9.80
2017-11-23T20:53:24.932Z,9.90
2017-11-23T20:55:53.527Z,9.90
2017-11-23T20:58:21.917Z,9.90
2017-11-23T21:00:50.387Z,9.90
2017-11-23T21:03:19.579Z,9.90
2017-11-23T21:05:48.043Z,9.90
2017-11-23T21:08:17.275Z,9.90
2017-11-23T21:10:45.656Z,9.90
2017-11-23T21:13:14.060Z,10.00
2017-11-23T21:15:42.457Z,10.10
2017-11-23T21:18:10.850Z,10.10
2017-11-23T21:20:39.245Z,10.10
2017-11-23T21:23:07.636Z,10.00
2017-11-23T21:25:36.910Z,10.10
2017-11-23T21:28:05.391Z,10.00
2017-11-23T21:30:33.797Z,9.90
2017-11-23T21:33:02.178Z,9.70
2017-11-23T21:35:30.568Z,9.60
2017-11-23T21:37:58.944Z,9.40
2017-11-23T21:40:27.320Z,9.30
2017-11-23T21:42:55.716Z,9.30
2017-11-23T21:45:24.863Z,9.40
2017-11-23T21:47:53.227Z,9.30
2017-11-23T21:50:21.971Z,9.30
2017-11-23T21:52:51.120Z,9.30
2017-11-23T21:55:19.492Z,9.20
2017-11-23T21:57:48.754Z,9.20
2017-11-23T22:00:17.134Z,9.20
2017-11-23T22:02:45.511Z,9.20
2017-11-23T22:05:13.892Z,9.20
2017-11-23T22:07:42.270Z,9.20
2017-11-23T22:10:10.907Z,9.20
2017-11-23T22:12:39.308Z,9.30
2017-11-23T22:15:08.455Z,9.40
2017-11-23T22:17:36.838Z,9.30
2017-11-23T22:20:04.890Z,9.40
2017-11-23T22:22:33.266Z,9.40
2017-11-23T22:25:01.648Z,9.50
2017-11-23T22:27:30.039Z,9.50
2017-11-23T22:29:58.410Z,9.40
2017-11-23T22:32:26.881Z,9.40
2017-11-23T22:34:55.270Z,9.40
2017-11-23T22:37:23.644Z,9.40
2017-11-23T22:39:52.016Z,9.40
2017-11-23T22:42:20.395Z,9.30
2017-11-23T22:44:48.598Z,9.20
2017-11-23T22:47:16.982Z,9.20
2017-11-23T22:49:45.178Z,9.20
2017-11-23T22:52:14.315Z,9.10
2017-11-23T22:54:42.694Z,9.10
2017-11-23T22:57:11.216Z,9.10
2017-11-23T22:59:39.580Z,9.10
2017-11-23T23:02:07.626Z,9.10
2017-11-23T23:04:36.016Z,9.10
2017-11-23T23:07:04.402Z,9.10
2017-11-23T23:09:32.780Z,9.10
2017-11-23T23:12:01.334Z,9.10
2017-11-23T23:14:29.711Z,9.20
2017-11-23T23:16:58.091Z,9.20
2017-11-23T23:19:26.468Z,9.20
2017-11-23T23:21:54.849Z,9.20
2017-11-23T23:24:23.220Z,9.20
2017-11-23T23:26:51.607Z,9.20
2017-11-23T23:29:19.982Z,9.20
2017-11-23T23:31:48.362Z,9.20
2017-11-23T23:34:16.754Z,9.10
2017-11-23T23:36:45.136Z,9.10
2017-11-23T23:39:13.514Z,9.10
2017-11-23T23:41:41.903Z,9.10
2017-11-23T23:44:10.348Z,9.10
2017-11-23T23:46:38.727Z,9.10
2017-11-23T23:49:07.119Z,9.10
2017-11-23T23:51:35.682Z,9.00
2017-11-23T23:54:03.861Z,9.00
2017-11-23T23:56:32.260Z,8.90
2017-11-23T23:59:00.444Z,8.90
